createdAt,value
2023-04-24T00:02:48.345Z,1.20
2023-04-24T00:08:50.473Z,1.27
2023-04-24T00:14:52.561Z,1.30
2023-04-24T00:20:54.460Z,1.10
2023-04-24T00:26:56.395Z,1.10
2023-04-24T00:32:59.058Z,1.47
2023-04-24T00:39:00.991Z,1.67
2023-04-24T00:45:04.275Z,1.43
2023-04-24T00:51:06.295Z,1.33
2023-04-24T00:57:08.396Z,1.20
2023-04-24T01:03:12.137Z,1.40
2023-04-24T01:09:15.606Z,1.00
2023-04-24T01:15:17.545Z,1.17
2023-04-24T01:21:22.132Z,1.27
2023-04-24T01:27:24.043Z,1.30
2023-04-24T01:33:26.411Z,1.17
2023-04-24T01:39:29.581Z,1.33
2023-04-24T01:45:31.602Z,1.13
2023-04-24T01:51:33.567Z,1.00
2023-04-24T01:57:36.214Z,1.20
2023-04-24T02:03:38.214Z,1.00
2023-04-24T02:09:40.392Z,1.30
2023-04-24T02:15:42.464Z,0.90
2023-04-24T02:21:44.343Z,1.27
2023-04-24T02:27:46.238Z,1.30
2023-04-24T02:33:48.418Z,1.13
2023-04-24T02:39:50.400Z,1.10
2023-04-24T02:45:52.342Z,1.30
2023-04-24T02:51:54.260Z,1.13
2023-04-24T02:57:56.178Z,1.30
2023-04-24T03:03:58.189Z,1.27
2023-04-24T03:10:00.604Z,0.93
2023-04-24T03:16:02.895Z,1.13
2023-04-24T03:22:04.946Z,0.90
2023-04-24T03:28:06.854Z,1.17
2023-04-24T03:34:08.742Z,1.33
2023-04-24T03:40:10.923Z,1.07
2023-04-24T03:46:12.870Z,1.10
2023-04-24T03:52:14.788Z,1.40
2023-04-24T03:58:17.080Z,1.37
2023-04-24T04:04:19.045Z,1.20
2023-04-24T04:10:21.191Z,1.50
2023-04-24T04:16:23.561Z,1.50
2023-04-24T04:22:25.553Z,1.30
2023-04-24T04:28:27.502Z,1.33
2023-04-24T04:34:30.728Z,1.53
2023-04-24T04:40:32.802Z,1.40
2023-04-24T04:46:35.158Z,1.30
2023-04-24T04:52:37.153Z,1.67
2023-04-24T04:58:39.070Z,1.70
2023-04-24T05:04:41.216Z,1.70
2023-04-24T05:10:43.221Z,1.60
2023-04-24T05:16:45.337Z,1.67
2023-04-24T05:22:47.217Z,1.47
2023-04-24T05:28:49.177Z,1.50
2023-04-24T05:34:51.173Z,1.33
2023-04-24T05:40:53.106Z,1.37
2023-04-24T05:46:56.596Z,1.40
2023-04-24T05:53:03.040Z,1.23
2023-04-24T05:59:05.079Z,1.87
2023-04-24T06:05:07.493Z,1.27
2023-04-24T06:11:09.425Z,1.27
2023-04-24T06:17:11.344Z,1.57
2023-04-24T06:23:13.280Z,1.50
2023-04-24T06:29:15.224Z,1.20
2023-04-24T06:35:17.255Z,1.40
2023-04-24T06:41:19.434Z,1.30
2023-04-24T06:47:21.364Z,1.30
2023-04-24T06:53:23.704Z,1.50
2023-04-24T06:59:26.121Z,1.90
2023-04-24T07:05:29.221Z,1.77
2023-04-24T07:11:31.419Z,1.83
2023-04-24T07:17:33.434Z,1.40
2023-04-24T07:23:35.392Z,1.50
2023-04-24T07:29:37.345Z,1.70
2023-04-24T07:35:39.438Z,1.87
2023-04-24T07:41:41.456Z,1.70
2023-04-24T07:47:46.558Z,2.03
2023-04-24T07:53:48.590Z,2.40
2023-04-24T07:59:50.518Z,2.47
2023-04-24T08:05:52.551Z,2.50
2023-04-24T08:11:54.895Z,3.17
2023-04-24T08:17:58.943Z,3.30
2023-04-24T08:24:01.494Z,2.63
2023-04-24T08:30:05.253Z,2.57
2023-04-24T08:36:08.360Z,3.10
2023-04-24T08:42:12.405Z,3.23
2023-04-24T08:48:27.268Z,2.47
2023-04-24T08:54:34.861Z,2.53
2023-04-24T09:00:38.805Z,2.53
2023-04-24T09:06:41.462Z,2.23
2023-04-24T09:12:45.074Z,2.03
2023-04-24T09:18:47.100Z,2.43
2023-04-24T09:24:49.347Z,2.47
2023-04-24T09:31:23.051Z,2.30
2023-04-24T09:37:31.450Z,2.50
2023-04-24T09:43:34.310Z,2.00
2023-04-24T09:49:38.224Z,1.90
2023-04-24T09:55:45.787Z,2.50
2023-04-24T10:01:50.304Z,2.60
2023-04-24T10:07:52.742Z,2.40
2023-04-24T10:13:56.467Z,3.37
2023-04-24T10:20:01.047Z,3.33
2023-04-24T10:26:03.938Z,3.43
2023-04-24T10:32:08.436Z,2.53
2023-04-24T10:38:14.935Z,2.70
2023-04-24T10:44:17.682Z,2.63
2023-04-24T10:50:19.813Z,2.70
2023-04-24T10:56:23.144Z,2.77
2023-04-24T11:02:41.502Z,2.80
2023-04-24T11:08:49.179Z,2.07
2023-04-24T11:15:00.485Z,1.87
2023-04-24T11:21:17.925Z,7.93
2023-04-24T11:27:22.376Z,2.40
2023-04-24T11:33:24.331Z,2.30
2023-04-24T11:39:26.319Z,1.70
2023-04-24T11:45:32.079Z,1.40
2023-04-24T11:51:47.841Z,0.93
2023-04-24T11:58:01.049Z,1.60
2023-04-24T12:04:03.254Z,1.30
2023-04-24T12:10:07.011Z,1.87
2023-04-24T12:16:09.003Z,1.80
2023-04-24T12:22:11.003Z,1.43
2023-04-24T12:28:14.391Z,1.33
2023-04-24T12:34:21.614Z,1.17
2023-04-24T12:40:26.758Z,0.70
2023-04-24T12:46:28.679Z,0.60
2023-04-24T12:52:31.619Z,0.83
2023-04-24T12:58:33.504Z,0.80
2023-04-24T13:04:35.412Z,1.00
2023-04-24T13:10:37.380Z,0.87
2023-04-24T13:16:39.287Z,0.80
2023-04-24T13:22:41.217Z,0.80
2023-04-24T13:28:43.216Z,0.80
2023-04-24T13:34:45.129Z,0.70
2023-04-24T13:40:47.023Z,0.70
2023-04-24T13:46:52.768Z,0.80
2023-04-24T13:52:55.219Z,0.80
2023-04-24T13:58:57.672Z,0.97
2023-04-24T14:04:59.698Z,0.67
2023-04-24T14:11:04.035Z,1.20
2023-04-24T14:17:06.782Z,0.80
2023-04-24T14:23:08.748Z,2.23
2023-04-24T14:29:14.765Z,1.60
2023-04-24T14:35:17.388Z,1.33
2023-04-24T14:41:19.376Z,1.40
2023-04-24T14:47:22.737Z,1.60
2023-04-24T14:53:24.884Z,1.50
2023-04-24T14:59:26.837Z,1.57
2023-04-24T15:05:29.101Z,1.87
2023-04-24T15:11:31.176Z,2.30
2023-04-24T15:17:33.161Z,2.10
2023-04-24T15:23:35.075Z,2.80
2023-04-24T15:29:37.106Z,2.57
2023-04-24T15:35:39.081Z,2.40
2023-04-24T15:41:40.976Z,3.33
2023-04-24T15:47:42.949Z,3.07
2023-04-24T15:53:47.243Z,4.00
2023-04-24T15:59:49.581Z,3.43
2023-04-24T16:05:53.463Z,4.00
2023-04-24T16:11:55.596Z,3.60
2023-04-24T16:17:58.445Z,3.00
2023-04-24T16:24:00.457Z,3.30
2023-04-24T16:30:03.069Z,3.20
2023-04-24T16:36:07.356Z,2.40
2023-04-24T16:42:09.525Z,3.20
2023-04-24T16:48:11.504Z,3.50
2023-04-24T16:54:13.400Z,2.20
2023-04-24T17:00:16.416Z,5.00
2023-04-24T17:06:18.402Z,3.80
2023-04-24T17:12:20.386Z,4.40
2023-04-24T17:18:22.334Z,6.90
2023-04-24T17:24:24.559Z,7.83
2023-04-24T17:30:26.761Z,3.70
2023-04-24T17:36:28.698Z,2.90
2023-04-24T17:42:30.701Z,3.03
2023-04-24T17:48:32.642Z,3.63
2023-04-24T17:54:34.834Z,3.27
2023-04-24T18:00:37.359Z,3.03
2023-04-24T18:06:39.779Z,2.27
2023-04-24T18:12:41.753Z,3.00
2023-04-24T18:18:43.700Z,2.87
2023-04-24T18:24:45.679Z,2.53
2023-04-24T18:30:47.872Z,3.30
2023-04-24T18:36:49.773Z,2.53
2023-04-24T18:42:51.732Z,3.27
2023-04-24T18:48:53.680Z,2.93
2023-04-24T18:54:55.688Z,3.90
2023-04-24T19:00:57.912Z,4.77
2023-04-24T19:06:59.832Z,4.00
2023-04-24T19:13:01.915Z,3.70
2023-04-24T19:19:05.538Z,3.80
2023-04-24T19:25:08.696Z,3.70
2023-04-24T19:31:10.718Z,3.73
2023-04-24T19:37:13.319Z,3.70
2023-04-24T19:43:15.214Z,3.30
2023-04-24T19:49:17.266Z,3.67
2023-04-24T19:55:19.327Z,3.83
2023-04-24T20:01:21.487Z,4.20
2023-04-24T20:07:23.429Z,3.50
2023-04-24T20:13:28.144Z,3.70
2023-04-24T20:19:30.261Z,3.70
2023-04-24T20:25:32.214Z,3.20
2023-04-24T20:31:34.707Z,3.40
2023-04-24T20:37:36.867Z,3.67
2023-04-24T20:43:39.605Z,4.37
2023-04-24T20:49:41.640Z,3.87
2023-04-24T20:55:43.642Z,4.33
2023-04-24T21:01:45.632Z,4.13
2023-04-24T21:07:47.718Z,5.17
2023-04-24T21:13:49.841Z,5.40
2023-04-24T21:19:52.016Z,4.47
2023-04-24T21:25:53.925Z,4.60
2023-04-24T21:31:56.026Z,3.60
2023-04-24T21:37:57.932Z,4.87
2023-04-24T21:43:59.913Z,4.30
2023-04-24T21:50:01.967Z,4.10
2023-04-24T21:56:04.129Z,4.30
2023-04-24T22:02:06.273Z,4.67
2023-04-24T22:08:08.338Z,4.87
2023-04-24T22:14:10.997Z,4.50
2023-04-24T22:20:13.833Z,4.83
2023-04-24T22:26:15.804Z,4.60
2023-04-24T22:32:17.764Z,4.07
2023-04-24T22:38:19.675Z,4.50
2023-04-24T22:44:22.120Z,3.97
2023-04-24T22:50:25.459Z,3.53
2023-04-24T22:56:27.395Z,3.50
2023-04-24T23:02:29.441Z,4.40
2023-04-24T23:08:31.452Z,4.63
2023-04-24T23:14:34.309Z,4.50
2023-04-24T23:20:36.332Z,4.20
2023-04-24T23:26:38.378Z,4.90
2023-04-24T23:32:40.282Z,4.20
2023-04-24T23:38:49.637Z,4.60
2023-04-24T23:44:52.585Z,4.80
2023-04-24T23:50:54.576Z,5.33
2023-04-24T23:56:56.487Z,4.30
